Time;durP1;ratioP1;P1;durP2;ratioP2;P2;SDS_P1;SDS_P2;PMS_P1;PMS_P2;Temp;Humidity;BMP_temperature;BMP_pressure;BME280_temperature;BME280_humidity;BME280_pressure;Samples;Min_cycle;Max_cycle;Signal;HPM_P1;HPM_P2
2021/07/22 00:01:36;;;;;;;13.90;8.75;;;;;;;16.63;69.09;102193.00;10207268;28;20069;-71
2021/07/22 00:06:33;;;;;;;15.07;8.20;;;;;;;16.65;69.06;102189.13;10186991;28;20076;-72
2021/07/22 00:11:30;;;;;;;11.80;8.27;;;;;;;16.65;68.18;102194.66;10204682;28;20045;-72
2021/07/22 00:16:26;;;;;;;10.90;7.32;;;;;;;16.68;68.66;102191.25;10211864;28;20483;-73
2021/07/22 00:21:23;;;;;;;10.32;7.25;;;;;;;16.72;68.63;102195.00;10188703;28;20052;-71
2021/07/22 00:26:20;;;;;;;14.95;8.02;;;;;;;16.72;68.46;102195.00;10205256;28;20511;-70
2021/07/22 00:31:17;;;;;;;10.55;7.22;;;;;;;16.59;68.98;102186.53;10195298;28;20045;-71
2021/07/22 00:36:13;;;;;;;13.13;8.10;;;;;;;16.57;69.18;102187.97;10199520;28;20042;-71
2021/07/22 00:41:12;;;;;;;14.00;8.15;;;;;;;16.52;68.56;102191.69;10192755;28;20512;-71
2021/07/22 00:46:09;;;;;;;12.05;7.68;;;;;;;16.49;69.07;102186.03;10210347;28;20055;-72
2021/07/22 00:51:06;;;;;;;10.80;6.97;;;;;;;16.48;69.12;102184.41;10202310;28;20088;-71
2021/07/22 00:56:03;;;;;;;11.60;7.40;;;;;;;16.42;68.95;102187.31;10189741;28;20147;-72
2021/07/22 01:00:59;;;;;;;13.95;7.03;;;;;;;16.36;69.13;102173.97;10183777;28;20049;-71
2021/07/22 01:05:56;;;;;;;12.50;7.50;;;;;;;16.26;69.20;102177.84;10196806;28;20038;-71
2021/07/22 01:10:53;;;;;;;10.68;6.95;;;;;;;16.19;69.30;102178.31;10203178;28;20042;-71
2021/07/22 01:15:49;;;;;;;20.55;7.78;;;;;;;16.12;69.46;102177.97;10205093;28;20078;-71
2021/07/22 01:20:46;;;;;;;12.40;6.95;;;;;;;16.03;69.57;102179.91;10195716;28;20042;-71
2021/07/22 01:25:42;;;;;;;11.50;6.93;;;;;;;16.00;69.98;102169.50;10190646;28;20053;-71
2021/07/22 01:30:39;;;;;;;11.73;6.70;;;;;;;15.93;69.61;102169.16;10203672;28;20046;-71
2021/07/22 01:35:37;;;;;;;11.07;6.47;;;;;;;15.89;69.91;102168.16;10206956;28;20042;-70
2021/07/22 01:40:34;;;;;;;17.95;7.13;;;;;;;15.83;69.88;102164.75;10200092;28;20566;-70
2021/07/22 01:45:31;;;;;;;10.05;6.38;;;;;;;15.82;70.08;102167.81;10202865;28;20045;-71
2021/07/22 01:50:28;;;;;;;10.82;6.53;;;;;;;15.85;70.41;102172.69;10203755;28;20096;-71
2021/07/22 01:55:24;;;;;;;11.68;6.53;;;;;;;15.87;70.48;102164.91;10207580;28;20046;-69
2021/07/22 02:00:21;;;;;;;10.15;7.00;;;;;;;15.91;70.75;102168.66;10184753;28;20049;-72
2021/07/22 02:05:17;;;;;;;10.48;6.57;;;;;;;15.94;70.63;102156.97;10184486;28;20108;-73
2021/07/22 02:10:14;;;;;;;13.00;8.05;;;;;;;15.95;70.42;102161.38;10193259;28;20092;-74
2021/07/22 02:15:10;;;;;;;10.07;6.25;;;;;;;15.91;70.71;102154.88;10211919;28;20076;-71
2021/07/22 02:20:08;;;;;;;12.07;7.28;;;;;;;15.88;70.55;102155.53;10210045;28;20088;-71
2021/07/22 02:25:06;;;;;;;11.60;6.00;;;;;;;15.85;70.21;102153.38;10205859;28;20045;-71
2021/07/22 02:30:05;;;;;;;11.52;6.50;;;;;;;15.81;69.86;102157.94;10188187;28;20068;-72
2021/07/22 02:35:02;;;;;;;9.70;5.63;;;;;;;15.74;69.83;102156.44;10182425;28;20046;-71
2021/07/22 02:39:59;;;;;;;8.75;5.95;;;;;;;15.72;69.69;102161.44;10211565;28;20140;-71
2021/07/22 02:44:55;;;;;;;13.68;6.25;;;;;;;15.64;69.71;102162.22;10197104;28;20168;-69
2021/07/22 02:49:51;;;;;;;9.10;5.85;;;;;;;15.56;69.99;102160.22;10208297;28;20077;-70
2021/07/22 02:54:48;;;;;;;10.63;5.95;;;;;;;15.44;70.11;102157.22;10201377;28;20050;-69
2021/07/22 02:59:45;;;;;;;11.40;5.95;;;;;;;15.37;70.13;102152.16;10197877;28;20069;-70
2021/07/22 03:04:41;;;;;;;9.68;5.55;;;;;;;15.31;70.36;102165.25;10196385;28;20485;-69
2021/07/22 03:09:38;;;;;;;12.98;6.45;;;;;;;15.21;70.68;102171.03;10198336;28;20104;-69
2021/07/22 03:14:34;;;;;;;14.43;6.75;;;;;;;15.13;70.82;102180.03;10211235;28;20078;-69
2021/07/22 03:19:31;;;;;;;11.10;7.10;;;;;;;15.05;71.56;102172.53;10198855;28;20709;-69
2021/07/22 03:24:27;;;;;;;11.70;7.13;;;;;;;15.02;71.44;102173.16;10188428;28;20482;-69
2021/07/22 03:29:24;;;;;;;8.50;6.13;;;;;;;14.97;71.73;102176.03;10196758;28;20053;-68
2021/07/22 03:34:20;;;;;;;11.75;6.50;;;;;;;14.97;72.46;102181.53;10211232;28;20045;-69
2021/07/22 03:39:19;;;;;;;12.30;6.15;;;;;;;15.01;73.09;102179.78;10194385;28;20614;-69
2021/07/22 03:44:16;;;;;;;8.48;6.15;;;;;;;15.10;73.66;102180.66;10198888;28;20050;-69
2021/07/22 03:49:13;;;;;;;12.00;6.60;;;;;;;15.19;73.40;102173.28;10210361;28;20068;-70
2021/07/22 03:54:09;;;;;;;12.40;6.93;;;;;;;15.29;73.53;102173.03;10192667;28;20049;-69
2021/07/22 03:59:06;;;;;;;11.45;6.85;;;;;;;15.40;73.68;102167.25;10175028;28;20806;-70
2021/07/22 04:04:03;;;;;;;12.27;6.63;;;;;;;15.48;73.88;102160.97;10188819;28;20112;-70
2021/07/22 04:08:59;;;;;;;12.27;6.75;;;;;;;15.53;73.92;102177.38;10188542;28;20443;-70
2021/07/22 04:13:56;;;;;;;11.30;6.55;;;;;;;15.60;74.07;102177.75;10183996;28;20065;-71
2021/07/22 04:18:52;;;;;;;12.48;6.70;;;;;;;15.67;74.36;102172.59;10191539;28;20049;-71
2021/07/22 04:23:49;;;;;;;13.70;5.38;;;;;;;15.75;73.34;102174.59;10188666;28;20419;-71
2021/07/22 04:28:45;;;;;;;8.38;5.60;;;;;;;15.79;71.33;102166.50;10188395;28;20058;-71
2021/07/22 04:33:43;;;;;;;9.48;5.47;;;;;;;15.84;69.83;102165.56;10196177;28;20053;-70
2021/07/22 04:38:39;;;;;;;7.53;4.60;;;;;;;15.89;70.11;102173.69;10212001;28;20084;-71
2021/07/22 04:43:36;;;;;;;10.25;4.57;;;;;;;15.95;67.97;102172.41;10197672;28;20136;-71
2021/07/22 04:48:33;;;;;;;10.07;4.15;;;;;;;15.96;66.57;102169.31;10206852;28;20123;-71
2021/07/22 04:53:29;;;;;;;10.85;4.47;;;;;;;15.99;65.50;102160.44;10195540;28;20061;-70
2021/07/22 04:58:26;;;;;;;6.43;3.30;;;;;;;16.04;65.40;102164.97;10190778;28;20124;-70
2021/07/22 05:03:22;;;;;;;9.40;3.45;;;;;;;16.09;64.23;102175.88;10188522;28;20136;-70
2021/07/22 05:08:19;;;;;;;7.32;3.75;;;;;;;16.15;64.08;102171.84;10183485;28;20045;-70
2021/07/22 05:13:15;;;;;;;7.00;3.50;;;;;;;16.16;64.10;102173.44;10190560;28;20672;-70
2021/07/22 05:18:15;;;;;;;8.27;4.18;;;;;;;16.17;64.16;102180.59;10192151;28;20853;-70
2021/07/22 05:23:13;;;;;;;8.38;4.28;;;;;;;16.25;64.83;102180.94;10191012;28;20752;-70
2021/07/22 05:28:10;;;;;;;9.07;4.00;;;;;;;16.33;64.57;102175.44;10189961;28;20507;-70
2021/07/22 05:33:08;;;;;;;9.30;4.75;;;;;;;16.35;64.04;102175.13;10192966;28;20911;-70
2021/07/22 05:38:04;;;;;;;9.85;4.57;;;;;;;16.35;63.70;102164.88;10204199;28;20090;-68
2021/07/22 05:43:01;;;;;;;7.30;3.75;;;;;;;16.29;63.43;102168.94;10176889;28;20152;-68
2021/07/22 05:47:57;;;;;;;9.38;3.88;;;;;;;16.36;63.87;102165.69;10184864;28;20137;-69
2021/07/22 05:52:57;;;;;;;9.02;3.75;;;;;;;16.42;63.74;102169.94;10188454;28;20057;-68
2021/07/22 05:57:53;;;;;;;9.15;3.95;;;;;;;16.55;64.02;102174.50;10191005;28;20192;-68
2021/07/22 06:02:49;;;;;;;8.88;3.47;;;;;;;16.54;61.89;102181.16;10185484;28;20408;-68
2021/07/22 06:07:46;;;;;;;9.07;3.90;;;;;;;16.68;63.39;102178.25;10193309;28;20046;-68
2021/07/22 06:12:43;;;;;;;7.03;3.80;;;;;;;16.76;63.20;102174.69;10190679;28;20132;-68
2021/07/22 06:17:43;;;;;;;6.38;3.58;;;;;;;16.84;62.77;102170.31;10187016;28;20129;-68
2021/07/22 06:22:40;;;;;;;9.02;3.58;;;;;;;16.86;61.99;102168.06;10204312;28;20042;-68
2021/07/22 06:27:36;;;;;;;7.95;3.30;;;;;;;16.93;62.13;102162.84;10198004;28;20072;-69
2021/07/22 06:32:33;;;;;;;8.73;3.05;;;;;;;16.92;60.85;102161.22;10198804;28;20042;-68
2021/07/22 06:37:45;;;;;;;9.85;3.92;;;;;;;16.81;60.58;102159.94;10193354;28;20052;-68
2021/07/22 06:42:42;;;;;;;9.23;3.78;;;;;;;16.92;60.04;102160.41;10186288;28;20500;-68
2021/07/22 06:47:39;;;;;;;9.57;3.70;;;;;;;16.93;60.31;102162.84;10203182;28;20103;-68
2021/07/22 06:52:39;;;;;;;7.30;3.90;;;;;;;16.92;59.57;102171.44;10198385;28;20060;-69
2021/07/22 06:57:35;;;;;;;6.82;2.85;;;;;;;16.98;59.01;102162.66;10206058;28;20041;-69
2021/07/22 07:02:32;;;;;;;8.27;3.67;;;;;;;16.94;58.83;102171.94;10206748;28;20141;-69
2021/07/22 07:07:29;;;;;;;6.63;2.60;;;;;;;17.06;58.29;102180.41;10211838;28;20047;-68
2021/07/22 07:12:26;;;;;;;6.32;2.83;;;;;;;17.14;57.77;102184.28;10213792;28;20088;-68
2021/07/22 07:17:22;;;;;;;6.40;2.80;;;;;;;17.12;57.47;102176.31;10204406;28;20738;-68
2021/07/22 07:22:19;;;;;;;7.72;3.30;;;;;;;17.18;58.38;102176.97;10204261;28;20080;-68
2021/07/22 07:27:16;;;;;;;7.65;2.95;;;;;;;17.25;58.09;102175.31;10203814;28;20053;-69
2021/07/22 07:32:13;;;;;;;11.45;3.70;;;;;;;17.43;56.62;102178.88;10213218;28;20065;-68
2021/07/22 07:37:10;;;;;;;5.18;2.40;;;;;;;17.43;56.14;102181.63;10201447;28;20093;-68
2021/07/22 07:42:06;;;;;;;6.57;3.15;;;;;;;17.35;56.50;102173.34;10205415;28;20046;-68
2021/07/22 07:47:03;;;;;;;7.47;2.75;;;;;;;17.41;56.58;102183.91;10208315;28;20511;-68
2021/07/22 07:51:59;;;;;;;9.23;2.78;;;;;;;17.56;56.55;102184.53;10201324;28;20545;-68
2021/07/22 07:56:56;;;;;;;6.50;2.90;;;;;;;17.58;57.14;102193.31;10193248;28;20079;-68
2021/07/22 08:01:52;;;;;;;7.90;2.83;;;;;;;17.55;56.88;102188.44;10202958;28;20145;-68
2021/07/22 08:06:49;;;;;;;6.28;2.85;;;;;;;17.54;56.37;102181.28;10215451;28;20627;-68
2021/07/22 08:11:45;;;;;;;7.35;2.58;;;;;;;17.67;57.03;102185.78;10202712;28;20073;-69
2021/07/22 08:16:45;;;;;;;4.97;3.00;;;;;;;17.78;56.00;102192.59;10205922;28;20053;-69
2021/07/22 08:21:41;;;;;;;9.25;3.03;;;;;;;17.67;56.09;102180.25;10195632;28;20578;-69
2021/07/22 08:26:38;;;;;;;6.50;2.75;;;;;;;17.90;55.83;102174.50;10207736;28;20045;-68
2021/07/22 08:31:35;;;;;;;6.45;3.40;;;;;;;17.90;55.21;102183.63;10199210;28;20061;-68
2021/07/22 08:36:31;;;;;;;7.18;3.40;;;;;;;17.95;56.29;102174.31;10205905;28;20049;-68
2021/07/22 08:41:28;;;;;;;6.22;2.83;;;;;;;18.21;56.54;102166.69;10205425;28;20065;-68
2021/07/22 08:46:24;;;;;;;7.13;3.22;;;;;;;18.36;55.11;102161.72;10204134;28;20189;-69
2021/07/22 08:51:25;;;;;;;6.88;2.83;;;;;;;18.44;54.47;102163.59;10203321;28;20111;-68
2021/07/22 08:56:23;;;;;;;6.22;2.90;;;;;;;18.30;55.02;102163.88;10207445;28;20042;-68
2021/07/22 09:01:21;;;;;;;7.28;3.35;;;;;;;18.35;54.58;102162.84;10190417;28;20073;-67
2021/07/22 09:06:19;;;;;;;7.03;3.50;;;;;;;18.47;54.20;102162.94;10191353;28;20048;-68
2021/07/22 09:11:15;;;;;;;6.63;3.22;;;;;;;18.64;54.86;102151.72;10206728;28;20038;-69
2021/07/22 09:16:12;;;;;;;5.78;2.70;;;;;;;18.68;53.14;102155.44;10203127;28;20049;-69
2021/07/22 09:21:20;;;;;;;8.65;3.10;;;;;;;18.67;52.58;102153.81;10205336;28;20057;-68
2021/07/22 09:26:31;;;;;;;6.38;2.80;;;;;;;18.95;51.99;102150.50;10198845;28;20075;-68
2021/07/22 09:31:28;;;;;;;5.47;2.60;;;;;;;19.12;51.41;102153.13;10194090;28;20104;-68
2021/07/22 09:36:27;;;;;;;6.22;2.80;;;;;;;18.97;51.63;102153.75;10186573;28;20077;-68
2021/07/22 09:41:24;;;;;;;5.95;3.15;;;;;;;18.95;51.66;102147.75;10194233;28;20085;-68
2021/07/22 09:46:39;;;;;;;6.88;3.05;;;;;;;18.99;52.13;102140.38;10204093;28;20045;-68
2021/07/22 09:51:37;;;;;;;5.13;2.80;;;;;;;19.11;51.61;102153.47;10177434;28;20053;-68
2021/07/22 09:56:38;;;;;;;7.60;3.58;;;;;;;19.09;52.29;102151.03;10204477;28;20045;-69
2021/07/22 10:01:44;;;;;;;5.82;3.13;;;;;;;19.18;51.84;102164.00;10203407;28;20045;-68
2021/07/22 10:06:46;;;;;;;8.52;3.33;;;;;;;19.01;52.06;102153.91;10206132;28;20053;-69
2021/07/22 10:11:43;;;;;;;7.55;3.47;;;;;;;19.26;52.14;102144.50;10187327;28;20042;-68
2021/07/22 10:16:40;;;;;;;9.77;4.22;;;;;;;19.35;50.83;102152.72;10202000;28;20381;-68
2021/07/22 10:21:37;;;;;;;5.65;3.40;;;;;;;19.23;51.01;102145.19;10202056;28;20037;-69
2021/07/22 10:26:40;;;;;;;6.70;3.38;;;;;;;19.83;50.70;102151.19;10201565;28;20822;-69
2021/07/22 10:31:40;;;;;;;6.65;3.30;;;;;;;19.68;50.65;102135.19;10190212;28;20049;-68
2021/07/22 10:36:40;;;;;;;7.30;3.92;;;;;;;19.76;49.52;102140.66;10185777;28;20038;-68
2021/07/22 10:41:41;;;;;;;7.80;2.80;;;;;;;19.97;49.24;102140.56;10195754;28;20046;-69
2021/07/22 10:46:58;;;;;;;6.05;3.33;;;;;;;20.01;48.28;102131.53;10203910;28;20124;-68
2021/07/22 10:51:54;;;;;;;6.45;2.53;;;;;;;19.76;48.14;102134.31;10200235;28;20077;-68
2021/07/22 10:56:51;;;;;;;6.43;3.00;;;;;;;19.88;46.88;102125.97;10177791;28;20097;-68
2021/07/22 11:01:49;;;;;;;7.55;3.58;;;;;;;20.86;45.32;102129.72;10196033;28;20107;-68
2021/07/22 11:07:15;;;;;;;5.80;2.88;;;;;;;22.01;43.51;102116.81;10196737;28;20048;-68
2021/07/22 11:12:44;;;;;;;4.43;2.72;;;;;;;23.04;40.47;102118.19;10182188;28;20511;-69
2021/07/22 11:17:43;;;;;;;7.60;2.55;;;;;;;24.01;38.71;102110.69;10191347;28;20050;-68
2021/07/22 11:22:39;;;;;;;5.35;2.40;;;;;;;24.02;38.27;102115.91;10181478;28;20692;-69
2021/07/22 11:27:49;;;;;;;6.32;2.83;;;;;;;22.31;41.07;102114.31;10196760;28;20046;-69
2021/07/22 11:32:45;;;;;;;5.25;2.95;;;;;;;21.90;41.35;102116.53;10188936;28;20041;-68
2021/07/22 11:37:42;;;;;;;4.78;2.30;;;;;;;22.98;40.54;102097.34;10187480;28;20101;-69
2021/07/22 11:42:57;;;;;;;4.10;2.03;;;;;;;23.17;38.05;102093.75;10198517;28;20480;-68
2021/07/22 11:47:53;;;;;;;4.80;2.00;;;;;;;22.78;38.92;102093.78;10189189;28;20053;-69
2021/07/22 11:52:50;;;;;;;5.00;2.20;;;;;;;23.00;39.69;102099.78;10188824;28;20038;-68
2021/07/22 11:57:46;;;;;;;3.50;1.52;;;;;;;22.51;39.30;102100.38;10190614;28;20065;-68
2021/07/22 12:02:46;;;;;;;5.22;2.00;;;;;;;22.74;40.71;102092.09;10190374;28;20077;-69
2021/07/22 12:07:43;;;;;;;4.78;1.90;;;;;;;22.89;40.26;102094.78;10193998;28;20062;-69
2021/07/22 12:12:40;;;;;;;5.28;1.90;;;;;;;23.04;40.30;102075.56;10192902;28;20112;-69
2021/07/22 12:17:37;;;;;;;5.32;1.83;;;;;;;23.30;39.47;102070.06;10190764;28;20049;-69
2021/07/22 12:22:37;;;;;;;5.25;1.75;;;;;;;22.47;40.90;102073.25;10190445;28;20050;-68
2021/07/22 12:27:36;;;;;;;5.55;1.77;;;;;;;22.19;41.52;102069.84;10184384;28;20121;-69
2021/07/22 12:32:34;;;;;;;8.93;1.73;;;;;;;22.09;40.35;102064.84;10197091;28;20514;-69
2021/07/22 12:37:53;;;;;;;2.63;1.42;;;;;;;22.21;40.32;102059.16;10191922;28;20045;-69
2021/07/22 12:42:58;;;;;;;5.78;1.67;;;;;;;21.82;42.26;102053.53;10190563;28;20492;-68
2021/07/22 12:47:54;;;;;;;5.32;1.70;;;;;;;22.02;42.17;102030.13;10192012;28;20042;-68
2021/07/22 12:52:51;;;;;;;2.95;1.45;;;;;;;22.04;41.75;102038.88;10197938;28;20037;-69
2021/07/22 12:57:47;;;;;;;5.40;1.60;;;;;;;22.12;41.22;102027.91;10187608;28;20527;-68
2021/07/22 13:03:00;;;;;;;8.48;2.33;;;;;;;22.39;42.09;102026.91;10181092;28;20069;-69
2021/07/22 13:07:57;;;;;;;5.13;2.20;;;;;;;22.40;40.25;102022.16;10191840;28;20037;-69
2021/07/22 13:13:14;;;;;;;3.75;1.50;;;;;;;22.06;40.44;102019.84;10188393;28;20427;-68
2021/07/22 13:18:10;;;;;;;6.78;1.52;;;;;;;22.28;41.05;102017.56;10192469;28;20112;-69
2021/07/22 13:23:07;;;;;;;4.07;1.48;;;;;;;22.12;42.43;102022.31;10193569;28;20100;-68
2021/07/22 13:28:03;;;;;;;5.53;1.30;;;;;;;22.43;41.12;102022.22;10185898;28;20591;-68
2021/07/22 13:33:00;;;;;;;5.45;1.60;;;;;;;22.53;41.26;102014.44;10185023;28;20085;-68
2021/07/22 13:37:56;;;;;;;5.93;1.70;;;;;;;22.14;41.89;102015.25;10187837;28;20522;-69
2021/07/22 13:42:53;;;;;;;4.28;1.50;;;;;;;22.16;42.23;102000.94;10199206;28;20081;-69
2021/07/22 13:47:50;;;;;;;4.03;1.05;;;;;;;22.41;41.22;102004.25;10187077;28;20042;-68
2021/07/22 13:52:47;;;;;;;7.40;1.50;;;;;;;22.25;41.12;101993.19;10186264;28;20037;-68
2021/07/22 13:57:43;;;;;;;7.40;1.70;;;;;;;22.13;42.44;101991.34;10186763;28;20136;-68
2021/07/22 14:02:40;;;;;;;4.28;1.08;;;;;;;21.96;40.73;101980.66;10198438;28;20109;-68
2021/07/22 14:07:36;;;;;;;5.30;1.70;;;;;;;22.28;40.35;101998.06;10186359;28;20088;-69
2021/07/22 14:12:34;;;;;;;4.78;1.17;;;;;;;22.44;39.93;101992.38;10189012;28;20143;-68
2021/07/22 14:17:30;;;;;;;4.95;1.20;;;;;;;22.32;40.45;101992.53;10186103;28;20104;-69
2021/07/22 14:22:26;;;;;;;3.78;0.98;;;;;;;22.49;40.27;101975.38;10190899;28;20050;-68
2021/07/22 14:27:23;;;;;;;4.15;0.77;;;;;;;22.21;40.76;101981.16;10188177;28;20061;-69
2021/07/22 14:32:19;;;;;;;4.38;1.10;;;;;;;22.00;40.83;101987.91;10190293;28;20049;-68
2021/07/22 14:37:17;;;;;;;3.78;1.08;;;;;;;21.96;42.04;101967.53;10190940;28;20050;-69
2021/07/22 14:42:13;;;;;;;7.00;1.23;;;;;;;21.83;42.56;101968.81;10193827;28;20136;-68
2021/07/22 14:47:12;;;;;;;5.65;1.30;;;;;;;22.00;42.93;101971.19;10189131;28;20034;-68
2021/07/22 14:52:09;;;;;;;3.72;1.10;;;;;;;22.21;42.59;101958.88;10188352;28;20066;-68
2021/07/22 14:57:06;;;;;;;2.97;0.77;;;;;;;22.23;41.86;101962.09;10187837;28;20049;-67
2021/07/22 15:02:02;;;;;;;4.57;1.40;;;;;;;22.31;41.76;101963.88;10185008;28;20072;-68
2021/07/22 15:06:59;;;;;;;3.63;1.10;;;;;;;22.37;42.32;101961.59;10179898;28;20053;-68
2021/07/22 15:11:56;;;;;;;7.47;2.10;;;;;;;22.06;42.09;101968.91;10195443;28;20076;-68
2021/07/22 15:16:52;;;;;;;4.43;1.90;;;;;;;21.93;42.75;101965.47;10193641;28;20116;-68
2021/07/22 15:21:51;;;;;;;4.30;1.10;;;;;;;21.89;42.72;101964.59;10192943;28;20045;-68
2021/07/22 15:26:50;;;;;;;3.88;0.82;;;;;;;21.98;42.06;101961.59;10191729;28;20062;-68
2021/07/22 15:31:46;;;;;;;4.78;1.05;;;;;;;22.00;42.12;101960.06;10193206;28;20042;-68
2021/07/22 15:36:43;;;;;;;4.25;1.00;;;;;;;21.97;41.53;101949.63;10206587;28;20500;-67
2021/07/22 15:41:40;;;;;;;4.25;1.20;;;;;;;22.14;41.49;101942.84;10190550;28;20502;-67
2021/07/22 15:46:37;;;;;;;5.57;1.42;;;;;;;22.15;41.01;101943.63;10191896;28;20042;-68
2021/07/22 15:51:34;;;;;;;9.68;1.17;;;;;;;22.29;40.12;101937.56;10191962;28;20061;-68
2021/07/22 15:56:31;;;;;;;5.18;1.08;;;;;;;22.59;40.22;101940.50;10201625;28;20133;-67
2021/07/22 16:01:27;;;;;;;6.65;0.93;;;;;;;22.31;39.89;101936.00;10191543;28;20655;-68
2021/07/22 16:06:24;;;;;;;5.85;1.33;;;;;;;22.51;40.66;101933.19;10193406;28;20423;-68
2021/07/22 16:11:21;;;;;;;7.30;1.58;;;;;;;23.31;39.23;101922.97;10197032;28;20408;-68
2021/07/22 16:16:17;;;;;;;6.40;2.28;;;;;;;24.14;37.71;101928.47;10199873;28;20459;-68
2021/07/22 16:21:15;;;;;;;4.43;1.00;;;;;;;24.45;35.43;101922.78;10189516;28;20101;-68
2021/07/22 16:26:12;;;;;;;4.15;1.55;;;;;;;25.40;34.96;101919.19;10184306;28;20065;-68
2021/07/22 16:31:10;;;;;;;5.53;1.08;;;;;;;25.16;34.62;101922.63;10194700;28;20077;-68
2021/07/22 16:36:06;;;;;;;6.40;1.27;;;;;;;25.12;35.88;101921.78;10197969;28;20459;-68
2021/07/22 16:41:03;;;;;;;3.17;0.82;;;;;;;24.68;35.05;101922.63;10196641;28;20396;-67
2021/07/22 16:45:59;;;;;;;4.72;1.05;;;;;;;25.06;36.51;101914.94;10190103;28;20050;-68
2021/07/22 16:50:56;;;;;;;5.30;1.20;;;;;;;24.99;37.19;101915.69;10191735;28;20388;-68
2021/07/22 16:55:53;;;;;;;7.60;2.28;;;;;;;24.61;37.18;101911.38;10188002;28;20046;-67
2021/07/22 17:00:49;;;;;;;4.05;1.17;;;;;;;24.59;37.02;101902.56;10194105;28;20561;-67
2021/07/22 17:05:47;;;;;;;5.20;1.00;;;;;;;23.50;39.26;101902.50;10191190;28;20037;-67
2021/07/22 17:10:43;;;;;;;6.18;1.33;;;;;;;23.11;40.03;101899.94;10193544;28;20149;-68
2021/07/22 17:15:40;;;;;;;4.90;1.30;;;;;;;22.64;41.22;101898.38;10165303;28;20460;-68
2021/07/22 17:20:37;;;;;;;6.10;1.13;;;;;;;21.94;42.37;101894.69;10192400;28;20486;-68
2021/07/22 17:25:33;;;;;;;9.27;2.45;;;;;;;21.58;43.43;101893.97;10198780;28;20046;-68
2021/07/22 17:30:30;;;;;;;6.63;2.13;;;;;;;21.70;43.78;101879.09;10191044;28;20050;-68
2021/07/22 17:35:26;;;;;;;6.95;2.22;;;;;;;21.64;43.79;101886.13;10194373;28;20046;-68
2021/07/22 17:40:27;;;;;;;7.03;2.58;;;;;;;21.58;44.37;101893.97;10195917;28;20081;-68
2021/07/22 17:45:24;;;;;;;8.15;2.03;;;;;;;22.18;43.58;101887.19;10194574;28;20077;-68
2021/07/22 17:50:20;;;;;;;10.15;2.17;;;;;;;22.26;43.20;101891.75;10196973;28;20149;-68
2021/07/22 17:55:17;;;;;;;7.55;1.55;;;;;;;21.30;45.37;101888.53;10187194;28;20108;-68
2021/07/22 18:00:14;;;;;;;12.27;4.95;;;;;;;21.13;45.74;101895.31;10190999;28;20539;-68
2021/07/22 18:05:11;;;;;;;7.38;1.90;;;;;;;20.68;47.69;101895.78;10162975;28;20765;-67
2021/07/22 18:10:07;;;;;;;7.40;1.90;;;;;;;20.46;48.56;101895.22;10190409;28;20046;-68
2021/07/22 18:15:06;;;;;;;4.90;2.05;;;;;;;20.44;48.94;101893.94;10191911;28;20416;-68
2021/07/22 18:20:05;;;;;;;6.63;2.65;;;;;;;20.05;49.75;101891.75;10182662;28;20050;-68
2021/07/22 18:25:02;;;;;;;10.30;4.45;;;;;;;20.01;50.42;101890.03;10189515;28;20046;-68
2021/07/22 18:29:58;;;;;;;7.55;2.25;;;;;;;19.92;50.49;101882.66;10189982;28;20077;-68
2021/07/22 18:35:15;;;;;;;6.95;1.42;;;;;;;19.64;51.70;101890.13;10209088;28;20077;-68
2021/07/22 18:40:13;;;;;;;6.85;1.90;;;;;;;19.80;51.14;101891.03;10189389;28;20046;-68
2021/07/22 18:45:10;;;;;;;7.80;3.13;;;;;;;19.70;51.21;101892.34;10191108;28;20061;-68
2021/07/22 18:50:07;;;;;;;6.70;2.92;;;;;;;19.68;51.84;101879.94;10203606;28;20049;-68
2021/07/22 18:55:03;;;;;;;8.73;3.28;;;;;;;19.52;52.25;101880.69;10196553;28;20053;-68
2021/07/22 19:00:00;;;;;;;9.88;2.67;;;;;;;19.34;53.29;101884.88;10180416;28;20108;-67
2021/07/22 19:04:56;;;;;;;6.85;1.88;;;;;;;19.26;53.31;101894.13;10189974;28;20069;-68
2021/07/22 19:09:53;;;;;;;8.07;2.60;;;;;;;19.21;53.99;101880.50;10197569;28;20085;-69
2021/07/22 19:14:49;;;;;;;8.15;2.50;;;;;;;19.21;54.15;101877.75;10193189;28;20085;-68
2021/07/22 19:19:46;;;;;;;9.93;2.92;;;;;;;19.21;54.06;101874.97;10206389;28;20081;-68
2021/07/22 19:24:44;;;;;;;7.63;3.08;;;;;;;19.12;53.72;101881.47;10198305;28;20088;-68
2021/07/22 19:29:43;;;;;;;7.65;2.13;;;;;;;19.04;54.20;101874.06;10200003;28;20065;-67
2021/07/22 19:34:39;;;;;;;9.55;2.83;;;;;;;18.99;54.22;101885.38;10197629;28;20078;-67
2021/07/22 19:39:36;;;;;;;8.02;2.22;;;;;;;18.97;53.55;101881.34;10191664;28;20736;-69
2021/07/22 19:44:32;;;;;;;5.38;1.70;;;;;;;18.86;53.10;101876.25;10195162;28;20076;-67
2021/07/22 19:49:29;;;;;;;7.55;2.30;;;;;;;18.77;53.09;101883.06;10197246;28;20049;-67
2021/07/22 19:54:25;;;;;;;6.90;1.20;;;;;;;18.82;53.78;101891.16;10193566;28;20080;-68
2021/07/22 19:59:22;;;;;;;5.10;1.90;;;;;;;18.67;55.18;101885.09;10191004;28;20566;-67
2021/07/22 20:04:18;;;;;;;6.00;1.60;;;;;;;18.65;55.01;101890.19;10194604;28;20665;-67
2021/07/22 20:09:15;;;;;;;5.53;1.95;;;;;;;18.72;54.92;101882.09;10181268;28;20096;-68
2021/07/22 20:14:11;;;;;;;4.60;2.08;;;;;;;18.58;54.95;101884.41;10186248;28;20152;-68
2021/07/22 20:19:09;;;;;;;6.20;3.22;;;;;;;18.40;55.47;101891.28;10206068;28;20050;-69
2021/07/22 20:24:05;;;;;;;5.50;2.33;;;;;;;18.24;56.45;101883.66;10194561;28;20103;-69
2021/07/22 20:29:02;;;;;;;7.30;2.47;;;;;;;18.21;56.64;101889.84;10192987;28;20128;-69
2021/07/22 20:33:58;;;;;;;8.05;2.47;;;;;;;18.29;56.42;101885.41;10174572;28;20618;-69
2021/07/22 20:38:54;;;;;;;10.90;4.25;;;;;;;18.21;56.64;101889.84;10191752;28;20066;-69
2021/07/22 20:43:51;;;;;;;8.73;3.78;;;;;;;18.12;56.88;101885.56;10185307;28;20100;-70
2021/07/22 20:48:47;;;;;;;5.38;2.65;;;;;;;18.05;57.14;101881.38;10199217;28;20115;-68
2021/07/22 20:53:44;;;;;;;5.07;2.60;;;;;;;18.03;57.32;101878.19;10196719;28;20137;-69
2021/07/22 20:58:40;;;;;;;7.88;3.80;;;;;;;17.85;57.84;101872.00;10188581;28;20100;-69
2021/07/22 21:03:37;;;;;;;9.57;3.38;;;;;;;17.71;58.32;101871.44;10191025;28;20077;-69
2021/07/22 21:08:33;;;;;;;6.40;2.50;;;;;;;17.79;58.02;101873.31;10210692;28;20104;-69
2021/07/22 21:13:34;;;;;;;6.80;2.75;;;;;;;17.78;57.97;101870.91;10168997;28;20463;-72
2021/07/22 21:18:31;;;;;;;7.78;2.65;;;;;;;17.66;57.97;101866.09;10191349;28;20042;-72
2021/07/22 21:23:27;;;;;;;9.75;3.92;;;;;;;17.56;58.40;101863.75;10198089;28;20077;-73
2021/07/22 21:28:24;;;;;;;6.10;3.00;;;;;;;17.38;58.72;101863.06;10184532;28;20108;-67
2021/07/22 21:33:20;;;;;;;7.03;3.42;;;;;;;17.28;59.26;101857.94;10197594;28;20494;-70
2021/07/22 21:38:17;;;;;;;10.50;3.78;;;;;;;17.23;59.38;101856.19;10202122;28;20039;-71
2021/07/22 21:43:14;;;;;;;6.28;2.95;;;;;;;17.19;59.46;101860.75;10195492;28;20099;-70
2021/07/22 21:48:10;;;;;;;7.75;3.50;;;;;;;17.17;59.58;101863.03;10187451;28;20471;-70
2021/07/22 21:53:07;;;;;;;5.10;2.10;;;;;;;17.14;59.57;101853.47;10189239;28;20054;-73
2021/07/22 21:58:24;;;;;;;7.78;2.50;;;;;;;17.08;59.97;101859.53;10190594;28;20566;-68
2021/07/22 22:03:47;;;;;;;6.53;2.58;;;;;;;16.97;60.48;101859.91;10191034;28;20046;-69
2021/07/22 22:14:42;;;;;;;7.93;2.47;;;;;;;16.87;60.72;101863.03;10159608;28;20046;-70
2021/07/22 22:19:41;;;;;;;7.30;2.20;;;;;;;16.83;60.81;101853.81;10191097;28;20088;-69
2021/07/22 22:24:41;;;;;;;7.40;2.55;;;;;;;16.81;61.38;101853.34;10190824;28;20065;-70
2021/07/22 22:29:39;;;;;;;7.07;3.00;;;;;;;16.82;61.20;101868.75;10203208;28;20054;-68
2021/07/22 22:34:39;;;;;;;8.68;2.45;;;;;;;16.77;61.32;101866.16;10204474;28;20573;-68
2021/07/22 22:39:35;;;;;;;6.45;2.63;;;;;;;16.65;61.61;101861.34;10200072;28;20065;-70
2021/07/22 22:44:32;;;;;;;7.53;2.88;;;;;;;16.57;61.96;101863.00;10201599;28;20042;-71
2021/07/22 22:49:29;;;;;;;7.05;2.67;;;;;;;16.47;62.35;101857.84;10191278;28;20038;-70